sensor_id;sensor_type;location;lat;lon;timestamp;temperature;humidity
10572;DHT22;5334;48.928;12.704;2023-04-20T00:00:10;3.60;99.90
10572;DHT22;5334;48.928;12.704;2023-04-20T00:02:36;4.00;99.90
10572;DHT22;5334;48.928;12.704;2023-04-20T00:05:05;3.80;99.90
10572;DHT22;5334;48.928;12.704;2023-04-20T00:07:32;3.80;99.90
10572;DHT22;5334;48.928;12.704;2023-04-20T00:14:50;3.80;99.90
10572;DHT22;5334;48.928;12.704;2023-04-20T00:17:16;3.70;99.90
10572;DHT22;5334;48.928;12.704;2023-04-20T00:19:42;3.70;99.90
10572;DHT22;5334;48.928;12.704;2023-04-20T00:22:08;3.60;99.90
10572;DHT22;5334;48.928;12.704;2023-04-20T00:24:33;3.50;99.90
10572;DHT22;5334;48.928;12.704;2023-04-20T00:26:59;3.40;99.90
10572;DHT22;5334;48.928;12.704;2023-04-20T00:29:25;3.30;99.90
10572;DHT22;5334;48.928;12.704;2023-04-20T00:31:50;3.30;99.90
10572;DHT22;5334;48.928;12.704;2023-04-20T00:34:16;3.30;99.90
10572;DHT22;5334;48.928;12.704;2023-04-20T00:36:42;3.30;99.90
10572;DHT22;5334;48.928;12.704;2023-04-20T00:39:08;3.30;99.90
10572;DHT22;5334;48.928;12.704;2023-04-20T00:41:33;3.30;99.90
10572;DHT22;5334;48.928;12.704;2023-04-20T00:43:59;3.30;99.90
10572;DHT22;5334;48.928;12.704;2023-04-20T00:46:25;3.40;99.90
10572;DHT22;5334;48.928;12.704;2023-04-20T00:48:52;3.50;99.90
10572;DHT22;5334;48.928;12.704;2023-04-20T00:51:19;3.50;99.90
10572;DHT22;5334;48.928;12.704;2023-04-20T00:53:45;3.60;99.90
10572;DHT22;5334;48.928;12.704;2023-04-20T00:56:13;3.60;99.90
10572;DHT22;5334;48.928;12.704;2023-04-20T00:58:39;3.60;99.90
10572;DHT22;5334;48.928;12.704;2023-04-20T01:01:06;3.70;99.90
10572;DHT22;5334;48.928;12.704;2023-04-20T01:03:32;3.70;99.90
10572;DHT22;5334;48.928;12.704;2023-04-20T01:05:57;3.80;99.90
10572;DHT22;5334;48.928;12.704;2023-04-20T01:08:27;3.80;99.90
10572;DHT22;5334;48.928;12.704;2023-04-20T01:10:55;3.80;99.90
10572;DHT22;5334;48.928;12.704;2023-04-20T01:13:21;3.80;99.90
10572;DHT22;5334;48.928;12.704;2023-04-20T01:15:47;3.80;99.90
10572;DHT22;5334;48.928;12.704;2023-04-20T01:18:13;3.80;99.90
10572;DHT22;5334;48.928;12.704;2023-04-20T01:20:39;3.80;99.90
10572;DHT22;5334;48.928;12.704;2023-04-20T01:23:05;3.80;99.90
10572;DHT22;5334;48.928;12.704;2023-04-20T01:25:31;3.70;99.90
10572;DHT22;5334;48.928;12.704;2023-04-20T01:27:57;3.80;99.90
10572;DHT22;5334;48.928;12.704;2023-04-20T01:30:22;3.70;99.90
10572;DHT22;5334;48.928;12.704;2023-04-20T01:32:48;3.70;99.90
10572;DHT22;5334;48.928;12.704;2023-04-20T01:35:14;3.70;99.90
10572;DHT22;5334;48.928;12.704;2023-04-20T01:37:40;3.70;99.90
10572;DHT22;5334;48.928;12.704;2023-04-20T01:40:10;3.70;99.90
10572;DHT22;5334;48.928;12.704;2023-04-20T01:42:36;3.70;99.90
10572;DHT22;5334;48.928;12.704;2023-04-20T01:45:04;3.70;99.90
10572;DHT22;5334;48.928;12.704;2023-04-20T01:47:30;3.60;99.90
10572;DHT22;5334;48.928;12.704;2023-04-20T01:49:56;3.70;99.90
10572;DHT22;5334;48.928;12.704;2023-04-20T01:52:22;3.70;99.90
10572;DHT22;5334;48.928;12.704;2023-04-20T01:54:47;3.70;99.90
10572;DHT22;5334;48.928;12.704;2023-04-20T01:57:13;3.70;99.90
10572;DHT22;5334;48.928;12.704;2023-04-20T01:59:39;3.70;99.90
10572;DHT22;5334;48.928;12.704;2023-04-20T02:02:04;3.70;99.90
10572;DHT22;5334;48.928;12.704;2023-04-20T02:04:30;3.70;99.90
10572;DHT22;5334;48.928;12.704;2023-04-20T02:06:56;3.70;99.90
10572;DHT22;5334;48.928;12.704;2023-04-20T02:09:21;3.80;99.90
10572;DHT22;5334;48.928;12.704;2023-04-20T02:11:47;3.80;99.90
10572;DHT22;5334;48.928;12.704;2023-04-20T02:14:13;3.80;99.90
10572;DHT22;5334;48.928;12.704;2023-04-20T02:16:38;3.80;99.90
10572;DHT22;5334;48.928;12.704;2023-04-20T02:19:04;3.80;99.90
10572;DHT22;5334;48.928;12.704;2023-04-20T02:21:30;3.80;99.90
10572;DHT22;5334;48.928;12.704;2023-04-20T02:23:56;3.80;99.90
10572;DHT22;5334;48.928;12.704;2023-04-20T02:26:22;3.70;99.90
10572;DHT22;5334;48.928;12.704;2023-04-20T02:28:48;3.70;99.90
10572;DHT22;5334;48.928;12.704;2023-04-20T02:31:13;3.60;99.90
10572;DHT22;5334;48.928;12.704;2023-04-20T02:33:39;3.60;99.90
10572;DHT22;5334;48.928;12.704;2023-04-20T02:36:05;3.60;99.90
10572;DHT22;5334;48.928;12.704;2023-04-20T02:38:31;3.60;99.90
10572;DHT22;5334;48.928;12.704;2023-04-20T02:40:57;3.60;99.90
10572;DHT22;5334;48.928;12.704;2023-04-20T02:43:22;3.50;99.90
10572;DHT22;5334;48.928;12.704;2023-04-20T02:45:48;3.60;99.90
10572;DHT22;5334;48.928;12.704;2023-04-20T02:48:14;3.60;99.90
10572;DHT22;5334;48.928;12.704;2023-04-20T02:50:41;3.60;99.90
10572;DHT22;5334;48.928;12.704;2023-04-20T02:53:07;3.60;99.90
10572;DHT22;5334;48.928;12.704;2023-04-20T02:55:33;3.60;99.90
10572;DHT22;5334;48.928;12.704;2023-04-20T02:57:58;3.60;99.90
10572;DHT22;5334;48.928;12.704;2023-04-20T03:00:24;3.60;99.90
10572;DHT22;5334;48.928;12.704;2023-04-20T03:02:50;3.60;99.90
10572;DHT22;5334;48.928;12.704;2023-04-20T03:05:16;3.60;99.90
10572;DHT22;5334;48.928;12.704;2023-04-20T03:07:42;3.50;99.90
10572;DHT22;5334;48.928;12.704;2023-04-20T03:10:08;3.50;99.90
10572;DHT22;5334;48.928;12.704;2023-04-20T03:12:34;3.50;99.90
10572;DHT22;5334;48.928;12.704;2023-04-20T03:15:00;3.40;99.90
10572;DHT22;5334;48.928;12.704;2023-04-20T03:17:26;3.40;99.90
10572;DHT22;5334;48.928;12.704;2023-04-20T03:19:51;3.40;99.90
10572;DHT22;5334;48.928;12.704;2023-04-20T03:22:17;3.40;99.90
10572;DHT22;5334;48.928;12.704;2023-04-20T03:24:45;3.40;99.90
10572;DHT22;5334;48.928;12.704;2023-04-20T03:27:12;3.40;99.90
10572;DHT22;5334;48.928;12.704;2023-04-20T03:29:38;3.50;99.90
10572;DHT22;5334;48.928;12.704;2023-04-20T03:32:04;3.50;99.90
10572;DHT22;5334;48.928;12.704;2023-04-20T03:34:29;3.50;99.90
10572;DHT22;5334;48.928;12.704;2023-04-20T03:36:56;3.50;99.90
10572;DHT22;5334;48.928;12.704;2023-04-20T03:39:21;3.60;99.90
10572;DHT22;5334;48.928;12.704;2023-04-20T03:41:47;3.60;99.90
10572;DHT22;5334;48.928;12.704;2023-04-20T03:44:12;3.60;99.90
10572;DHT22;5334;48.928;12.704;2023-04-20T03:46:39;3.60;99.90
10572;DHT22;5334;48.928;12.704;2023-04-20T03:49:05;3.70;99.90
10572;DHT22;5334;48.928;12.704;2023-04-20T03:51:31;3.70;99.90
10572;DHT22;5334;48.928;12.704;2023-04-20T03:53:57;3.80;99.90
10572;DHT22;5334;48.928;12.704;2023-04-20T03:56:22;3.80;99.90
10572;DHT22;5334;48.928;12.704;2023-04-20T03:58:48;3.80;99.90
10572;DHT22;5334;48.928;12.704;2023-04-20T04:01:14;3.80;99.90
10572;DHT22;5334;48.928;12.704;2023-04-20T04:03:40;3.80;99.90
10572;DHT22;5334;48.928;12.704;2023-04-20T04:06:06;3.80;99.90
10572;DHT22;5334;48.928;12.704;2023-04-20T04:08:32;3.80;99.90
10572;DHT22;5334;48.928;12.704;2023-04-20T04:10:59;3.80;99.90
10572;DHT22;5334;48.928;12.704;2023-04-20T04:13:24;3.70;99.90
10572;DHT22;5334;48.928;12.704;2023-04-20T04:15:50;3.80;99.90
10572;DHT22;5334;48.928;12.704;2023-04-20T04:18:16;3.80;99.90
10572;DHT22;5334;48.928;12.704;2023-04-20T04:20:41;3.80;99.90
10572;DHT22;5334;48.928;12.704;2023-04-20T04:23:07;3.80;99.90
10572;DHT22;5334;48.928;12.704;2023-04-20T04:25:36;3.90;99.90
10572;DHT22;5334;48.928;12.704;2023-04-20T04:28:02;3.90;99.90
10572;DHT22;5334;48.928;12.704;2023-04-20T04:30:27;3.90;99.90
10572;DHT22;5334;48.928;12.704;2023-04-20T04:32:53;3.90;99.90
10572;DHT22;5334;48.928;12.704;2023-04-20T04:35:19;3.90;99.90
10572;DHT22;5334;48.928;12.704;2023-04-20T04:37:46;4.00;99.90
10572;DHT22;5334;48.928;12.704;2023-04-20T04:40:12;4.00;99.90
10572;DHT22;5334;48.928;12.704;2023-04-20T04:42:38;4.00;99.90
10572;DHT22;5334;48.928;12.704;2023-04-20T04:45:04;4.10;99.90
10572;DHT22;5334;48.928;12.704;2023-04-20T04:47:36;4.10;99.90
10572;DHT22;5334;48.928;12.704;2023-04-20T04:50:03;4.10;99.90
10572;DHT22;5334;48.928;12.704;2023-04-20T04:52:30;4.10;99.90
10572;DHT22;5334;48.928;12.704;2023-04-20T04:54:56;4.10;99.90
10572;DHT22;5334;48.928;12.704;2023-04-20T04:57:22;4.00;99.90
10572;DHT22;5334;48.928;12.704;2023-04-20T04:59:47;3.90;99.90
10572;DHT22;5334;48.928;12.704;2023-04-20T05:02:13;3.90;99.90
10572;DHT22;5334;48.928;12.704;2023-04-20T05:04:39;3.90;99.90
10572;DHT22;5334;48.928;12.704;2023-04-20T05:07:04;3.90;99.90
10572;DHT22;5334;48.928;12.704;2023-04-20T05:09:30;3.90;99.90
10572;DHT22;5334;48.928;12.704;2023-04-20T05:12:01;3.90;99.90
10572;DHT22;5334;48.928;12.704;2023-04-20T05:14:29;4.00;99.90
10572;DHT22;5334;48.928;12.704;2023-04-20T05:16:57;4.00;99.90
10572;DHT22;5334;48.928;12.704;2023-04-20T05:19:22;4.10;99.90
10572;DHT22;5334;48.928;12.704;2023-04-20T05:21:48;4.10;99.90
10572;DHT22;5334;48.928;12.704;2023-04-20T05:24:14;4.20;99.90
10572;DHT22;5334;48.928;12.704;2023-04-20T05:26:40;4.20;99.90
10572;DHT22;5334;48.928;12.704;2023-04-20T05:29:05;4.30;99.90
10572;DHT22;5334;48.928;12.704;2023-04-20T05:31:31;4.40;99.90
10572;DHT22;5334;48.928;12.704;2023-04-20T05:33:57;4.50;99.90
10572;DHT22;5334;48.928;12.704;2023-04-20T05:36:23;4.50;99.90
10572;DHT22;5334;48.928;12.704;2023-04-20T05:38:49;4.60;99.90
10572;DHT22;5334;48.928;12.704;2023-04-20T05:41:15;4.60;99.90
10572;DHT22;5334;48.928;12.704;2023-04-20T05:43:40;4.60;99.90
10572;DHT22;5334;48.928;12.704;2023-04-20T05:46:06;4.70;99.90
10572;DHT22;5334;48.928;12.704;2023-04-20T05:48:32;4.90;99.90
10572;DHT22;5334;48.928;12.704;2023-04-20T05:50:57;5.00;99.90
10572;DHT22;5334;48.928;12.704;2023-04-20T05:53:23;5.10;99.90
10572;DHT22;5334;48.928;12.704;2023-04-20T05:55:49;5.30;99.90
10572;DHT22;5334;48.928;12.704;2023-04-20T05:58:15;5.40;99.90
10572;DHT22;5334;48.928;12.704;2023-04-20T06:00:41;5.50;99.90
10572;DHT22;5334;48.928;12.704;2023-04-20T06:03:06;5.70;99.90
10572;DHT22;5334;48.928;12.704;2023-04-20T06:05:32;5.70;99.90
10572;DHT22;5334;48.928;12.704;2023-04-20T06:07:58;5.70;99.90
10572;DHT22;5334;48.928;12.704;2023-04-20T06:10:24;5.70;99.90
10572;DHT22;5334;48.928;12.704;2023-04-20T06:12:49;5.70;99.90
10572;DHT22;5334;48.928;12.704;2023-04-20T06:15:15;5.70;99.90
10572;DHT22;5334;48.928;12.704;2023-04-20T06:17:41;5.70;99.90
10572;DHT22;5334;48.928;12.704;2023-04-20T06:20:08;5.60;99.90
10572;DHT22;5334;48.928;12.704;2023-04-20T06:22:35;5.60;99.90
10572;DHT22;5334;48.928;12.704;2023-04-20T06:25:01;5.60;99.90
10572;DHT22;5334;48.928;12.704;2023-04-20T06:27:27;5.60;99.90
10572;DHT22;5334;48.928;12.704;2023-04-20T06:29:53;5.60;99.90
10572;DHT22;5334;48.928;12.704;2023-04-20T06:32:19;5.60;99.90
10572;DHT22;5334;48.928;12.704;2023-04-20T06:34:45;5.70;99.90
10572;DHT22;5334;48.928;12.704;2023-04-20T06:37:12;5.70;99.90
10572;DHT22;5334;48.928;12.704;2023-04-20T06:39:38;5.70;99.90
10572;DHT22;5334;48.928;12.704;2023-04-20T06:42:03;5.70;99.90
10572;DHT22;5334;48.928;12.704;2023-04-20T06:44:29;5.80;99.90
10572;DHT22;5334;48.928;12.704;2023-04-20T06:46:55;5.80;99.90
10572;DHT22;5334;48.928;12.704;2023-04-20T06:49:20;5.80;99.90
10572;DHT22;5334;48.928;12.704;2023-04-20T06:51:46;5.80;99.90
10572;DHT22;5334;48.928;12.704;2023-04-20T06:54:12;5.80;99.90
10572;DHT22;5334;48.928;12.704;2023-04-20T06:56:37;5.80;99.90
10572;DHT22;5334;48.928;12.704;2023-04-20T06:59:03;5.80;99.90
10572;DHT22;5334;48.928;12.704;2023-04-20T07:01:28;5.80;99.90
10572;DHT22;5334;48.928;12.704;2023-04-20T07:03:55;5.80;99.90
10572;DHT22;5334;48.928;12.704;2023-04-20T07:06:20;5.80;99.90
10572;DHT22;5334;48.928;12.704;2023-04-20T07:08:46;5.80;99.90
10572;DHT22;5334;48.928;12.704;2023-04-20T07:11:12;5.90;99.90
10572;DHT22;5334;48.928;12.704;2023-04-20T07:13:37;6.00;99.90
10572;DHT22;5334;48.928;12.704;2023-04-20T07:16:03;6.00;99.90
10572;DHT22;5334;48.928;12.704;2023-04-20T07:18:29;6.10;99.90
10572;DHT22;5334;48.928;12.704;2023-04-20T07:20:55;6.20;99.90
10572;DHT22;5334;48.928;12.704;2023-04-20T07:23:21;6.20;99.90
10572;DHT22;5334;48.928;12.704;2023-04-20T07:25:47;6.20;99.90
10572;DHT22;5334;48.928;12.704;2023-04-20T07:28:12;6.30;99.90
10572;DHT22;5334;48.928;12.704;2023-04-20T07:30:38;6.40;99.90
10572;DHT22;5334;48.928;12.704;2023-04-20T07:33:04;6.50;99.90
10572;DHT22;5334;48.928;12.704;2023-04-20T07:35:30;6.70;99.90
10572;DHT22;5334;48.928;12.704;2023-04-20T07:40:21;7.00;99.90
10572;DHT22;5334;48.928;12.704;2023-04-20T07:42:47;7.10;99.90
10572;DHT22;5334;48.928;12.704;2023-04-20T07:45:13;7.20;99.90
10572;DHT22;5334;48.928;12.704;2023-04-20T07:50:06;7.40;99.90
10572;DHT22;5334;48.928;12.704;2023-04-20T07:52:32;7.40;99.90
10572;DHT22;5334;48.928;12.704;2023-04-20T07:54:57;7.40;99.90
10572;DHT22;5334;48.928;12.704;2023-04-20T07:57:25;7.50;99.90
10572;DHT22;5334;48.928;12.704;2023-04-20T07:59:51;7.60;99.90
10572;DHT22;5334;48.928;12.704;2023-04-20T08:02:16;7.60;99.90
10572;DHT22;5334;48.928;12.704;2023-04-20T08:04:42;7.70;99.90
10572;DHT22;5334;48.928;12.704;2023-04-20T08:07:11;7.70;99.90
10572;DHT22;5334;48.928;12.704;2023-04-20T08:09:37;7.80;99.90
10572;DHT22;5334;48.928;12.704;2023-04-20T08:12:03;7.80;99.90
10572;DHT22;5334;48.928;12.704;2023-04-20T08:14:29;7.80;99.90
10572;DHT22;5334;48.928;12.704;2023-04-20T08:16:55;7.80;99.90
10572;DHT22;5334;48.928;12.704;2023-04-20T08:19:21;7.70;99.90
10572;DHT22;5334;48.928;12.704;2023-04-20T08:21:47;7.70;99.90
10572;DHT22;5334;48.928;12.704;2023-04-20T08:24:12;7.70;99.90
10572;DHT22;5334;48.928;12.704;2023-04-20T08:26:38;7.70;99.90
10572;DHT22;5334;48.928;12.704;2023-04-20T08:29:04;7.70;99.90
10572;DHT22;5334;48.928;12.704;2023-04-20T08:31:31;7.80;99.90
10572;DHT22;5334;48.928;12.704;2023-04-20T08:33:56;7.80;99.90
10572;DHT22;5334;48.928;12.704;2023-04-20T08:36:22;7.80;99.90
10572;DHT22;5334;48.928;12.704;2023-04-20T08:39:04;7.90;99.90
10572;DHT22;5334;48.928;12.704;2023-04-20T08:41:30;7.90;99.90
10572;DHT22;5334;48.928;12.704;2023-04-20T08:43:56;8.00;99.90
10572;DHT22;5334;48.928;12.704;2023-04-20T08:46:22;8.00;99.90
10572;DHT22;5334;48.928;12.704;2023-04-20T08:48:49;8.10;99.90
10572;DHT22;5334;48.928;12.704;2023-04-20T08:51:17;8.10;99.90
10572;DHT22;5334;48.928;12.704;2023-04-20T08:53:43;8.10;99.90
10572;DHT22;5334;48.928;12.704;2023-04-20T08:56:09;8.10;99.90
10572;DHT22;5334;48.928;12.704;2023-04-20T08:58:35;8.10;99.90
10572;DHT22;5334;48.928;12.704;2023-04-20T09:01:03;8.20;99.90
10572;DHT22;5334;48.928;12.704;2023-04-20T09:03:35;8.20;99.90
10572;DHT22;5334;48.928;12.704;2023-04-20T09:06:02;8.20;99.90
10572;DHT22;5334;48.928;12.704;2023-04-20T09:08:36;8.20;99.90
10572;DHT22;5334;48.928;12.704;2023-04-20T09:11:02;8.30;99.90
10572;DHT22;5334;48.928;12.704;2023-04-20T09:13:27;8.30;99.90
10572;DHT22;5334;48.928;12.704;2023-04-20T09:15:53;8.30;99.90
10572;DHT22;5334;48.928;12.704;2023-04-20T09:18:19;8.40;99.90
10572;DHT22;5334;48.928;12.704;2023-04-20T09:23:13;8.90;99.90
10572;DHT22;5334;48.928;12.704;2023-04-20T09:25:40;9.30;99.90
10572;DHT22;5334;48.928;12.704;2023-04-20T09:28:07;9.80;99.90
10572;DHT22;5334;48.928;12.704;2023-04-20T09:30:42;10.10;99.90
10572;DHT22;5334;48.928;12.704;2023-04-20T09:38:05;10.90;99.90
10572;DHT22;5334;48.928;12.704;2023-04-20T09:40:31;10.90;99.90
10572;DHT22;5334;48.928;12.704;2023-04-20T09:43:00;11.00;99.90
10572;DHT22;5334;48.928;12.704;2023-04-20T09:45:28;11.10;99.90
10572;DHT22;5334;48.928;12.704;2023-04-20T09:47:54;11.20;99.90
10572;DHT22;5334;48.928;12.704;2023-04-20T09:50:20;11.30;99.90
10572;DHT22;5334;48.928;12.704;2023-04-20T09:52:47;11.20;99.90
10572;DHT22;5334;48.928;12.704;2023-04-20T09:55:14;11.00;99.90
10572;DHT22;5334;48.928;12.704;2023-04-20T09:57:40;10.80;99.90
10572;DHT22;5334;48.928;12.704;2023-04-20T10:00:07;10.50;99.90
10572;DHT22;5334;48.928;12.704;2023-04-20T10:02:35;10.50;99.90
10572;DHT22;5334;48.928;12.704;2023-04-20T10:05:01;10.70;99.90
10572;DHT22;5334;48.928;12.704;2023-04-20T10:07:29;10.90;99.90
10572;DHT22;5334;48.928;12.704;2023-04-20T10:10:07;11.10;99.90
10572;DHT22;5334;48.928;12.704;2023-04-20T10:12:52;11.10;99.90
10572;DHT22;5334;48.928;12.704;2023-04-20T10:15:18;11.30;99.90
10572;DHT22;5334;48.928;12.704;2023-04-20T10:17:46;11.70;99.90
10572;DHT22;5334;48.928;12.704;2023-04-20T10:20:38;11.80;99.90
10572;DHT22;5334;48.928;12.704;2023-04-20T10:23:08;11.60;99.90
10572;DHT22;5334;48.928;12.704;2023-04-20T10:25:34;11.40;99.90
10572;DHT22;5334;48.928;12.704;2023-04-20T10:28:03;11.70;99.90
10572;DHT22;5334;48.928;12.704;2023-04-20T10:30:31;11.90;99.90
10572;DHT22;5334;48.928;12.704;2023-04-20T10:33:11;12.20;99.90
10572;DHT22;5334;48.928;12.704;2023-04-20T10:35:52;12.30;99.90
10572;DHT22;5334;48.928;12.704;2023-04-20T10:38:30;12.30;99.90
10572;DHT22;5334;48.928;12.704;2023-04-20T10:40:56;12.70;99.90
10572;DHT22;5334;48.928;12.704;2023-04-20T10:43:22;13.20;99.90
10572;DHT22;5334;48.928;12.704;2023-04-20T10:45:48;14.00;99.90
10572;DHT22;5334;48.928;12.704;2023-04-20T10:48:14;14.50;99.90
10572;DHT22;5334;48.928;12.704;2023-04-20T10:50:40;14.50;99.90
10572;DHT22;5334;48.928;12.704;2023-04-20T10:53:16;14.10;99.90
10572;DHT22;5334;48.928;12.704;2023-04-20T10:55:42;13.60;99.90
10572;DHT22;5334;48.928;12.704;2023-04-20T10:58:08;13.30;99.90
10572;DHT22;5334;48.928;12.704;2023-04-20T11:00:34;12.90;99.90
10572;DHT22;5334;48.928;12.704;2023-04-20T11:02:59;12.60;99.90
10572;DHT22;5334;48.928;12.704;2023-04-20T11:05:26;12.30;99.90
10572;DHT22;5334;48.928;12.704;2023-04-20T11:07:53;12.20;99.90
10572;DHT22;5334;48.928;12.704;2023-04-20T11:10:21;12.40;99.90
10572;DHT22;5334;48.928;12.704;2023-04-20T11:12:47;12.70;99.90
10572;DHT22;5334;48.928;12.704;2023-04-20T11:15:13;13.00;99.90
10572;DHT22;5334;48.928;12.704;2023-04-20T11:17:39;13.00;99.90
10572;DHT22;5334;48.928;12.704;2023-04-20T11:20:09;12.70;99.90
10572;DHT22;5334;48.928;12.704;2023-04-20T11:22:36;12.90;99.90
10572;DHT22;5334;48.928;12.704;2023-04-20T11:25:06;13.40;99.90
10572;DHT22;5334;48.928;12.704;2023-04-20T11:27:36;14.00;99.90
10572;DHT22;5334;48.928;12.704;2023-04-20T11:37:47;16.00;99.90
10572;DHT22;5334;48.928;12.704;2023-04-20T11:40:15;16.30;99.90
10572;DHT22;5334;48.928;12.704;2023-04-20T11:42:41;16.70;99.90
10572;DHT22;5334;48.928;12.704;2023-04-20T11:45:07;17.00;99.90
10572;DHT22;5334;48.928;12.704;2023-04-20T11:47:33;17.30;99.90
10572;DHT22;5334;48.928;12.704;2023-04-20T11:49:59;17.50;99.90
10572;DHT22;5334;48.928;12.704;2023-04-20T11:52:25;17.70;99.90
10572;DHT22;5334;48.928;12.704;2023-04-20T11:54:51;17.80;99.90
10572;DHT22;5334;48.928;12.704;2023-04-20T11:57:18;17.70;99.90
10572;DHT22;5334;48.928;12.704;2023-04-20T11:59:46;17.70;99.90
10572;DHT22;5334;48.928;12.704;2023-04-20T12:02:14;17.70;99.90
10572;DHT22;5334;48.928;12.704;2023-04-20T12:04:39;17.60;99.70
10572;DHT22;5334;48.928;12.704;2023-04-20T12:07:06;17.50;99.10
10572;DHT22;5334;48.928;12.704;2023-04-20T12:09:32;17.10;99.90
10572;DHT22;5334;48.928;12.704;2023-04-20T12:12:06;17.10;99.90
10572;DHT22;5334;48.928;12.704;2023-04-20T12:14:33;17.20;99.90
10572;DHT22;5334;48.928;12.704;2023-04-20T12:16:59;17.30;99.90
10572;DHT22;5334;48.928;12.704;2023-04-20T12:19:25;16.90;99.10
10572;DHT22;5334;48.928;12.704;2023-04-20T12:21:51;16.60;99.90
10572;DHT22;5334;48.928;12.704;2023-04-20T12:24:17;16.50;99.90
10572;DHT22;5334;48.928;12.704;2023-04-20T12:26:42;16.60;99.90
10572;DHT22;5334;48.928;12.704;2023-04-20T12:29:08;16.70;99.90
10572;DHT22;5334;48.928;12.704;2023-04-20T12:31:34;16.80;99.90
10572;DHT22;5334;48.928;12.704;2023-04-20T12:34:00;16.90;99.90
10572;DHT22;5334;48.928;12.704;2023-04-20T12:36:26;16.80;99.90
10572;DHT22;5334;48.928;12.704;2023-04-20T12:38:52;16.70;99.90
10572;DHT22;5334;48.928;12.704;2023-04-20T12:41:20;16.50;99.90
10572;DHT22;5334;48.928;12.704;2023-04-20T12:43:48;15.90;99.90
10572;DHT22;5334;48.928;12.704;2023-04-20T12:46:13;15.50;99.90
10572;DHT22;5334;48.928;12.704;2023-04-20T12:48:39;15.50;99.90
10572;DHT22;5334;48.928;12.704;2023-04-20T12:51:06;15.70;99.90
10572;DHT22;5334;48.928;12.704;2023-04-20T12:53:31;15.80;99.90
10572;DHT22;5334;48.928;12.704;2023-04-20T12:55:57;15.80;99.90
10572;DHT22;5334;48.928;12.704;2023-04-20T12:58:23;16.20;99.90
10572;DHT22;5334;48.928;12.704;2023-04-20T13:00:49;16.60;99.90
10572;DHT22;5334;48.928;12.704;2023-04-20T13:03:15;16.90;99.90
10572;DHT22;5334;48.928;12.704;2023-04-20T13:05:41;16.90;99.90
10572;DHT22;5334;48.928;12.704;2023-04-20T13:08:09;16.60;99.50
10572;DHT22;5334;48.928;12.704;2023-04-20T13:10:35;16.00;99.90
10572;DHT22;5334;48.928;12.704;2023-04-20T13:13:01;15.70;99.90
10572;DHT22;5334;48.928;12.704;2023-04-20T13:15:27;15.80;99.90
10572;DHT22;5334;48.928;12.704;2023-04-20T13:17:53;15.90;99.90
10572;DHT22;5334;48.928;12.704;2023-04-20T13:20:19;16.00;99.90
10572;DHT22;5334;48.928;12.704;2023-04-20T13:22:45;16.40;99.90
10572;DHT22;5334;48.928;12.704;2023-04-20T13:25:10;16.30;99.80
10572;DHT22;5334;48.928;12.704;2023-04-20T13:27:36;15.90;99.90
10572;DHT22;5334;48.928;12.704;2023-04-20T13:30:03;15.50;99.90
10572;DHT22;5334;48.928;12.704;2023-04-20T13:32:31;15.30;99.90
10572;DHT22;5334;48.928;12.704;2023-04-20T13:34:57;15.10;99.90
10572;DHT22;5334;48.928;12.704;2023-04-20T13:37:22;15.00;99.90
10572;DHT22;5334;48.928;12.704;2023-04-20T13:39:49;14.80;99.90
10572;DHT22;5334;48.928;12.704;2023-04-20T13:42:14;14.80;99.90
10572;DHT22;5334;48.928;12.704;2023-04-20T13:44:40;14.70;99.90
10572;DHT22;5334;48.928;12.704;2023-04-20T13:47:06;14.90;99.90
10572;DHT22;5334;48.928;12.704;2023-04-20T13:49:32;15.10;99.90
10572;DHT22;5334;48.928;12.704;2023-04-20T13:51:57;15.40;99.90
10572;DHT22;5334;48.928;12.704;2023-04-20T13:54:23;15.50;99.90
10572;DHT22;5334;48.928;12.704;2023-04-20T13:56:49;15.50;99.90
10572;DHT22;5334;48.928;12.704;2023-04-20T13:59:15;15.60;99.90
10572;DHT22;5334;48.928;12.704;2023-04-20T14:01:41;15.40;99.90
10572;DHT22;5334;48.928;12.704;2023-04-20T14:04:08;15.40;99.90
10572;DHT22;5334;48.928;12.704;2023-04-20T14:06:33;15.10;99.90
10572;DHT22;5334;48.928;12.704;2023-04-20T14:08:59;15.00;99.90
10572;DHT22;5334;48.928;12.704;2023-04-20T14:11:25;15.20;99.90
10572;DHT22;5334;48.928;12.704;2023-04-20T14:13:51;15.50;99.90
10572;DHT22;5334;48.928;12.704;2023-04-20T14:16:16;15.50;99.90
10572;DHT22;5334;48.928;12.704;2023-04-20T14:18:43;15.20;99.90
10572;DHT22;5334;48.928;12.704;2023-04-20T14:21:09;15.10;99.90
10572;DHT22;5334;48.928;12.704;2023-04-20T14:23:35;14.90;99.90
10572;DHT22;5334;48.928;12.704;2023-04-20T14:26:00;15.00;99.90
10572;DHT22;5334;48.928;12.704;2023-04-20T14:28:28;15.00;99.90
10572;DHT22;5334;48.928;12.704;2023-04-20T14:30:54;15.00;99.90
10572;DHT22;5334;48.928;12.704;2023-04-20T14:33:20;15.30;99.90
10572;DHT22;5334;48.928;12.704;2023-04-20T14:35:45;15.40;99.90
10572;DHT22;5334;48.928;12.704;2023-04-20T14:38:11;15.30;99.90
10572;DHT22;5334;48.928;12.704;2023-04-20T14:40:37;15.40;99.90
10572;DHT22;5334;48.928;12.704;2023-04-20T14:43:03;15.60;99.90
10572;DHT22;5334;48.928;12.704;2023-04-20T14:45:28;15.90;99.90
10572;DHT22;5334;48.928;12.704;2023-04-20T14:47:55;16.20;99.90
10572;DHT22;5334;48.928;12.704;2023-04-20T14:50:23;16.50;99.90
10572;DHT22;5334;48.928;12.704;2023-04-20T14:52:52;16.90;99.90
10572;DHT22;5334;48.928;12.704;2023-04-20T14:55:19;17.20;99.90
10572;DHT22;5334;48.928;12.704;2023-04-20T14:57:49;17.20;99.90
10572;DHT22;5334;48.928;12.704;2023-04-20T15:00:15;16.90;99.90
10572;DHT22;5334;48.928;12.704;2023-04-20T15:02:41;16.50;99.90
10572;DHT22;5334;48.928;12.704;2023-04-20T15:05:07;16.30;99.90
10572;DHT22;5334;48.928;12.704;2023-04-20T15:07:33;16.30;99.90
10572;DHT22;5334;48.928;12.704;2023-04-20T15:09:58;16.30;99.90
10572;DHT22;5334;48.928;12.704;2023-04-20T15:12:24;16.40;99.90
10572;DHT22;5334;48.928;12.704;2023-04-20T15:14:50;16.40;99.90
10572;DHT22;5334;48.928;12.704;2023-04-20T15:17:19;16.40;99.90
10572;DHT22;5334;48.928;12.704;2023-04-20T15:19:45;16.70;99.90
10572;DHT22;5334;48.928;12.704;2023-04-20T15:22:11;17.00;99.90
10572;DHT22;5334;48.928;12.704;2023-04-20T15:24:38;17.50;99.90
10572;DHT22;5334;48.928;12.704;2023-04-20T15:27:05;18.20;99.90
10572;DHT22;5334;48.928;12.704;2023-04-20T15:31:58;19.20;99.90
10572;DHT22;5334;48.928;12.704;2023-04-20T15:34:24;19.10;99.30
10572;DHT22;5334;48.928;12.704;2023-04-20T15:36:50;18.90;99.90
10572;DHT22;5334;48.928;12.704;2023-04-20T15:39:15;18.70;99.10
10572;DHT22;5334;48.928;12.704;2023-04-20T15:41:41;18.20;99.70
10572;DHT22;5334;48.928;12.704;2023-04-20T15:44:07;18.00;99.90
10572;DHT22;5334;48.928;12.704;2023-04-20T15:46:34;18.10;99.90
10572;DHT22;5334;48.928;12.704;2023-04-20T15:49:00;18.10;99.80
10572;DHT22;5334;48.928;12.704;2023-04-20T15:51:26;18.20;99.90
10572;DHT22;5334;48.928;12.704;2023-04-20T15:53:51;18.10;99.90
10572;DHT22;5334;48.928;12.704;2023-04-20T15:56:17;18.00;99.90
10572;DHT22;5334;48.928;12.704;2023-04-20T15:58:44;17.70;99.70
10572;DHT22;5334;48.928;12.704;2023-04-20T16:01:09;17.40;99.90